sensor_id;sensor_type;location;lat;lon;timestamp;temperature;humidity
3866;DHT22;1948;53.250;10.412;2022-12-22T00:02:19;7.40;99.90
3866;DHT22;1948;53.250;10.412;2022-12-22T00:05:15;7.50;99.90
3866;DHT22;1948;53.250;10.412;2022-12-22T00:08:02;7.50;99.90
3866;DHT22;1948;53.250;10.412;2022-12-22T00:10:49;7.50;99.90
3866;DHT22;1948;53.250;10.412;2022-12-22T00:13:35;7.50;99.90
3866;DHT22;1948;53.250;10.412;2022-12-22T00:16:31;7.60;99.90
3866;DHT22;1948;53.250;10.412;2022-12-22T00:19:20;7.60;99.90
3866;DHT22;1948;53.250;10.412;2022-12-22T00:24:58;7.60;99.90
3866;DHT22;1948;53.250;10.412;2022-12-22T00:27:46;7.70;99.90
3866;DHT22;1948;53.250;10.412;2022-12-22T00:30:32;7.70;99.90
3866;DHT22;1948;53.250;10.412;2022-12-22T00:33:19;7.70;99.90
3866;DHT22;1948;53.250;10.412;2022-12-22T00:36:06;7.70;99.90
3866;DHT22;1948;53.250;10.412;2022-12-22T00:38:54;7.70;99.90
3866;DHT22;1948;53.250;10.412;2022-12-22T00:41:40;7.80;99.90
3866;DHT22;1948;53.250;10.412;2022-12-22T00:44:25;7.70;99.90
3866;DHT22;1948;53.250;10.412;2022-12-22T00:47:25;7.70;99.90
3866;DHT22;1948;53.250;10.412;2022-12-22T00:50:12;7.70;99.90
3866;DHT22;1948;53.250;10.412;2022-12-22T00:52:58;7.70;99.90
3866;DHT22;1948;53.250;10.412;2022-12-22T00:55:47;7.70;99.90
3866;DHT22;1948;53.250;10.412;2022-12-22T00:58:35;7.80;99.90
3866;DHT22;1948;53.250;10.412;2022-12-22T01:01:20;7.80;99.90
3866;DHT22;1948;53.250;10.412;2022-12-22T01:04:09;7.80;99.90
3866;DHT22;1948;53.250;10.412;2022-12-22T01:06:57;7.80;99.90
3866;DHT22;1948;53.250;10.412;2022-12-22T01:09:48;7.80;99.90
3866;DHT22;1948;53.250;10.412;2022-12-22T01:12:37;7.80;99.90
3866;DHT22;1948;53.250;10.412;2022-12-22T01:15:27;7.80;99.90
3866;DHT22;1948;53.250;10.412;2022-12-22T01:18:14;7.90;99.90
3866;DHT22;1948;53.250;10.412;2022-12-22T01:21:00;7.90;99.90
3866;DHT22;1948;53.250;10.412;2022-12-22T01:23:48;7.90;99.90
3866;DHT22;1948;53.250;10.412;2022-12-22T01:26:36;8.00;99.90
3866;DHT22;1948;53.250;10.412;2022-12-22T01:29:24;8.00;99.90
3866;DHT22;1948;53.250;10.412;2022-12-22T01:32:13;8.00;99.90
3866;DHT22;1948;53.250;10.412;2022-12-22T01:35:02;8.00;99.90
3866;DHT22;1948;53.250;10.412;2022-12-22T01:37:48;8.10;99.90
3866;DHT22;1948;53.250;10.412;2022-12-22T01:40:35;8.10;99.90
3866;DHT22;1948;53.250;10.412;2022-12-22T01:43:25;8.10;99.90
3866;DHT22;1948;53.250;10.412;2022-12-22T01:52:05;8.10;99.90
3866;DHT22;1948;53.250;10.412;2022-12-22T01:54:52;8.00;99.90
3866;DHT22;1948;53.250;10.412;2022-12-22T01:57:38;8.10;99.90
3866;DHT22;1948;53.250;10.412;2022-12-22T02:00:26;8.10;99.90
3866;DHT22;1948;53.250;10.412;2022-12-22T02:03:20;8.00;99.90
3866;DHT22;1948;53.250;10.412;2022-12-22T02:06:24;8.00;99.90
3866;DHT22;1948;53.250;10.412;2022-12-22T02:12:32;8.10;99.90
3866;DHT22;1948;53.250;10.412;2022-12-22T02:15:35;8.10;99.90
3866;DHT22;1948;53.250;10.412;2022-12-22T02:18:30;8.10;99.90
3866;DHT22;1948;53.250;10.412;2022-12-22T02:21:24;8.10;99.90
3866;DHT22;1948;53.250;10.412;2022-12-22T02:24:26;8.10;99.90
3866;DHT22;1948;53.250;10.412;2022-12-22T02:27:26;8.10;99.90
3866;DHT22;1948;53.250;10.412;2022-12-22T02:30:13;8.20;99.90
3866;DHT22;1948;53.250;10.412;2022-12-22T02:33:03;8.10;99.90
3866;DHT22;1948;53.250;10.412;2022-12-22T02:43:00;8.10;99.90
3866;DHT22;1948;53.250;10.412;2022-12-22T02:49:26;8.10;99.90
3866;DHT22;1948;53.250;10.412;2022-12-22T02:52:29;8.10;99.90
3866;DHT22;1948;53.250;10.412;2022-12-22T02:55:18;8.10;99.90
3866;DHT22;1948;53.250;10.412;2022-12-22T02:58:04;8.10;99.90
3866;DHT22;1948;53.250;10.412;2022-12-22T03:00:50;8.10;99.90
3866;DHT22;1948;53.250;10.412;2022-12-22T03:03:36;8.10;99.90
3866;DHT22;1948;53.250;10.412;2022-12-22T03:06:22;8.20;99.90
3866;DHT22;1948;53.250;10.412;2022-12-22T03:09:07;8.20;99.90
3866;DHT22;1948;53.250;10.412;2022-12-22T03:11:52;8.20;99.90
3866;DHT22;1948;53.250;10.412;2022-12-22T03:14:38;8.20;99.90
3866;DHT22;1948;53.250;10.412;2022-12-22T03:17:24;8.20;99.90
3866;DHT22;1948;53.250;10.412;2022-12-22T03:20:09;8.30;99.90
3866;DHT22;1948;53.250;10.412;2022-12-22T03:23:05;8.30;99.90
3866;DHT22;1948;53.250;10.412;2022-12-22T03:25:51;8.30;99.90
3866;DHT22;1948;53.250;10.412;2022-12-22T03:28:23;8.30;99.90
3866;DHT22;1948;53.250;10.412;2022-12-22T03:30:58;8.30;99.90
3866;DHT22;1948;53.250;10.412;2022-12-22T03:33:31;8.30;99.90
3866;DHT22;1948;53.250;10.412;2022-12-22T03:36:01;8.30;99.90
3866;DHT22;1948;53.250;10.412;2022-12-22T03:38:30;8.30;99.90
3866;DHT22;1948;53.250;10.412;2022-12-22T03:40:57;8.30;99.90
3866;DHT22;1948;53.250;10.412;2022-12-22T03:43:27;8.30;99.90
3866;DHT22;1948;53.250;10.412;2022-12-22T03:46:15;8.30;99.90
3866;DHT22;1948;53.250;10.412;2022-12-22T03:48:44;8.30;99.90
3866;DHT22;1948;53.250;10.412;2022-12-22T03:51:36;8.40;99.90
3866;DHT22;1948;53.250;10.412;2022-12-22T03:54:12;8.40;99.90
3866;DHT22;1948;53.250;10.412;2022-12-22T03:56:42;8.40;99.90
3866;DHT22;1948;53.250;10.412;2022-12-22T03:59:12;8.40;99.90
3866;DHT22;1948;53.250;10.412;2022-12-22T04:01:49;8.40;99.90
3866;DHT22;1948;53.250;10.412;2022-12-22T04:04:21;8.40;99.90
3866;DHT22;1948;53.250;10.412;2022-12-22T04:06:52;8.30;99.90
3866;DHT22;1948;53.250;10.412;2022-12-22T04:09:20;8.30;99.90
3866;DHT22;1948;53.250;10.412;2022-12-22T04:11:48;8.30;99.90
3866;DHT22;1948;53.250;10.412;2022-12-22T04:14:36;8.30;99.90
3866;DHT22;1948;53.250;10.412;2022-12-22T04:17:04;8.30;99.90
3866;DHT22;1948;53.250;10.412;2022-12-22T04:19:36;8.30;99.90
3866;DHT22;1948;53.250;10.412;2022-12-22T04:22:03;8.30;99.90
3866;DHT22;1948;53.250;10.412;2022-12-22T04:24:32;8.30;99.90
3866;DHT22;1948;53.250;10.412;2022-12-22T04:26:59;8.30;99.90
3866;DHT22;1948;53.250;10.412;2022-12-22T04:29:26;8.20;99.90
3866;DHT22;1948;53.250;10.412;2022-12-22T04:31:53;8.30;99.90
3866;DHT22;1948;53.250;10.412;2022-12-22T04:34:22;8.30;99.90
3866;DHT22;1948;53.250;10.412;2022-12-22T04:36:49;8.30;99.90
3866;DHT22;1948;53.250;10.412;2022-12-22T04:39:19;8.30;99.90
3866;DHT22;1948;53.250;10.412;2022-12-22T04:41:46;8.30;99.90
3866;DHT22;1948;53.250;10.412;2022-12-22T04:44:13;8.30;99.90
3866;DHT22;1948;53.250;10.412;2022-12-22T04:46:40;8.40;99.90
3866;DHT22;1948;53.250;10.412;2022-12-22T04:49:07;8.30;99.90
3866;DHT22;1948;53.250;10.412;2022-12-22T04:51:34;8.30;99.90
3866;DHT22;1948;53.250;10.412;2022-12-22T04:54:01;8.30;99.90
3866;DHT22;1948;53.250;10.412;2022-12-22T04:56:30;8.30;99.90
3866;DHT22;1948;53.250;10.412;2022-12-22T04:58:57;8.30;99.90
3866;DHT22;1948;53.250;10.412;2022-12-22T05:01:24;8.30;99.90
3866;DHT22;1948;53.250;10.412;2022-12-22T05:03:54;8.30;99.90
3866;DHT22;1948;53.250;10.412;2022-12-22T05:06:26;8.40;99.90
3866;DHT22;1948;53.250;10.412;2022-12-22T05:08:55;8.40;99.90
3866;DHT22;1948;53.250;10.412;2022-12-22T05:11:23;8.40;99.90
3866;DHT22;1948;53.250;10.412;2022-12-22T05:13:50;8.40;99.90
3866;DHT22;1948;53.250;10.412;2022-12-22T05:16:17;8.40;99.90
3866;DHT22;1948;53.250;10.412;2022-12-22T05:18:46;8.40;99.90
3866;DHT22;1948;53.250;10.412;2022-12-22T05:21:16;8.40;99.90
3866;DHT22;1948;53.250;10.412;2022-12-22T05:23:48;8.50;99.90
3866;DHT22;1948;53.250;10.412;2022-12-22T05:26:17;8.50;99.90
3866;DHT22;1948;53.250;10.412;2022-12-22T05:28:46;8.50;99.90
3866;DHT22;1948;53.250;10.412;2022-12-22T05:31:19;8.50;99.90
3866;DHT22;1948;53.250;10.412;2022-12-22T05:33:50;8.50;99.90
3866;DHT22;1948;53.250;10.412;2022-12-22T05:36:18;8.60;99.90
3866;DHT22;1948;53.250;10.412;2022-12-22T05:38:45;8.60;99.90
3866;DHT22;1948;53.250;10.412;2022-12-22T05:41:12;8.60;99.90
3866;DHT22;1948;53.250;10.412;2022-12-22T05:43:42;8.60;99.90
3866;DHT22;1948;53.250;10.412;2022-12-22T05:46:10;8.60;99.90
3866;DHT22;1948;53.250;10.412;2022-12-22T05:48:41;8.60;99.90
3866;DHT22;1948;53.250;10.412;2022-12-22T05:51:09;8.60;99.90
3866;DHT22;1948;53.250;10.412;2022-12-22T05:53:37;8.60;99.90
3866;DHT22;1948;53.250;10.412;2022-12-22T05:56:05;8.60;99.90
3866;DHT22;1948;53.250;10.412;2022-12-22T05:58:37;8.60;99.90
3866;DHT22;1948;53.250;10.412;2022-12-22T06:01:05;8.60;99.90
3866;DHT22;1948;53.250;10.412;2022-12-22T06:03:35;8.50;99.90
3866;DHT22;1948;53.250;10.412;2022-12-22T06:06:02;8.50;99.90
3866;DHT22;1948;53.250;10.412;2022-12-22T06:08:29;8.40;99.90
3866;DHT22;1948;53.250;10.412;2022-12-22T06:11:01;8.40;99.90
3866;DHT22;1948;53.250;10.412;2022-12-22T06:13:28;8.40;99.90
3866;DHT22;1948;53.250;10.412;2022-12-22T06:15:58;8.40;99.90
3866;DHT22;1948;53.250;10.412;2022-12-22T06:18:25;8.40;99.90
3866;DHT22;1948;53.250;10.412;2022-12-22T06:20:55;8.50;99.90
3866;DHT22;1948;53.250;10.412;2022-12-22T06:23:24;8.40;99.90
3866;DHT22;1948;53.250;10.412;2022-12-22T06:25:58;8.50;99.90
3866;DHT22;1948;53.250;10.412;2022-12-22T06:28:29;8.50;99.90
3866;DHT22;1948;53.250;10.412;2022-12-22T06:30:56;8.40;99.90
3866;DHT22;1948;53.250;10.412;2022-12-22T06:33:23;8.50;99.90
3866;DHT22;1948;53.250;10.412;2022-12-22T06:35:51;8.40;99.90
3866;DHT22;1948;53.250;10.412;2022-12-22T06:38:26;8.40;99.90
3866;DHT22;1948;53.250;10.412;2022-12-22T06:40:53;8.40;99.90
3866;DHT22;1948;53.250;10.412;2022-12-22T06:43:22;8.40;99.90
3866;DHT22;1948;53.250;10.412;2022-12-22T06:45:49;8.30;99.90
3866;DHT22;1948;53.250;10.412;2022-12-22T06:48:19;8.30;99.90
3866;DHT22;1948;53.250;10.412;2022-12-22T06:50:46;8.40;99.90
3866;DHT22;1948;53.250;10.412;2022-12-22T06:53:13;8.40;99.90
3866;DHT22;1948;53.250;10.412;2022-12-22T06:55:40;8.50;99.90
3866;DHT22;1948;53.250;10.412;2022-12-22T06:58:09;8.60;99.90
3866;DHT22;1948;53.250;10.412;2022-12-22T07:00:41;8.60;99.90
3866;DHT22;1948;53.250;10.412;2022-12-22T07:03:13;8.60;99.90
3866;DHT22;1948;53.250;10.412;2022-12-22T07:05:45;8.60;99.90
3866;DHT22;1948;53.250;10.412;2022-12-22T07:08:13;8.60;99.90
3866;DHT22;1948;53.250;10.412;2022-12-22T07:10:43;8.60;99.90
3866;DHT22;1948;53.250;10.412;2022-12-22T07:13:31;8.60;99.90
3866;DHT22;1948;53.250;10.412;2022-12-22T07:16:06;8.70;99.90
3866;DHT22;1948;53.250;10.412;2022-12-22T07:18:36;8.70;99.90
3866;DHT22;1948;53.250;10.412;2022-12-22T07:21:11;8.80;99.90
3866;DHT22;1948;53.250;10.412;2022-12-22T07:23:40;8.70;99.90
3866;DHT22;1948;53.250;10.412;2022-12-22T07:26:08;8.60;99.90
3866;DHT22;1948;53.250;10.412;2022-12-22T07:28:40;8.60;99.90
3866;DHT22;1948;53.250;10.412;2022-12-22T07:31:09;8.70;99.90
3866;DHT22;1948;53.250;10.412;2022-12-22T07:33:37;8.70;99.90
3866;DHT22;1948;53.250;10.412;2022-12-22T07:36:16;8.70;99.90
3866;DHT22;1948;53.250;10.412;2022-12-22T07:38:48;8.70;99.90
3866;DHT22;1948;53.250;10.412;2022-12-22T07:41:18;8.70;99.90
3866;DHT22;1948;53.250;10.412;2022-12-22T07:44:04;8.70;99.90
3866;DHT22;1948;53.250;10.412;2022-12-22T07:46:36;8.70;99.90
3866;DHT22;1948;53.250;10.412;2022-12-22T07:49:12;8.60;99.90
3866;DHT22;1948;53.250;10.412;2022-12-22T07:52:02;8.60;99.90
3866;DHT22;1948;53.250;10.412;2022-12-22T07:54:29;8.60;99.90
3866;DHT22;1948;53.250;10.412;2022-12-22T07:57:02;8.60;99.90
3866;DHT22;1948;53.250;10.412;2022-12-22T07:59:32;8.60;99.90
3866;DHT22;1948;53.250;10.412;2022-12-22T08:02:01;8.60;99.90
3866;DHT22;1948;53.250;10.412;2022-12-22T08:04:33;8.60;99.90
3866;DHT22;1948;53.250;10.412;2022-12-22T08:07:00;8.60;99.90
3866;DHT22;1948;53.250;10.412;2022-12-22T08:09:29;8.60;99.90
3866;DHT22;1948;53.250;10.412;2022-12-22T08:11:58;8.60;99.90
3866;DHT22;1948;53.250;10.412;2022-12-22T08:14:30;8.60;99.90
3866;DHT22;1948;53.250;10.412;2022-12-22T08:16:57;8.70;99.90
3866;DHT22;1948;53.250;10.412;2022-12-22T08:19:23;8.70;99.90
3866;DHT22;1948;53.250;10.412;2022-12-22T08:21:50;8.70;99.90
3866;DHT22;1948;53.250;10.412;2022-12-22T08:24:19;8.70;99.90
3866;DHT22;1948;53.250;10.412;2022-12-22T08:26:51;8.70;99.90
3866;DHT22;1948;53.250;10.412;2022-12-22T08:29:30;8.70;99.90
3866;DHT22;1948;53.250;10.412;2022-12-22T08:32:01;8.70;99.90
3866;DHT22;1948;53.250;10.412;2022-12-22T08:34:29;8.60;99.90
3866;DHT22;1948;53.250;10.412;2022-12-22T08:36:59;8.60;99.90
3866;DHT22;1948;53.250;10.412;2022-12-22T08:39:30;8.80;99.90
3866;DHT22;1948;53.250;10.412;2022-12-22T08:42:02;8.70;99.90
3866;DHT22;1948;53.250;10.412;2022-12-22T08:44:31;8.80;99.90
3866;DHT22;1948;53.250;10.412;2022-12-22T08:46:58;8.80;99.90
3866;DHT22;1948;53.250;10.412;2022-12-22T08:49:28;8.80;99.90
3866;DHT22;1948;53.250;10.412;2022-12-22T08:51:58;8.80;99.90
3866;DHT22;1948;53.250;10.412;2022-12-22T08:54:24;8.80;99.90
3866;DHT22;1948;53.250;10.412;2022-12-22T08:56:52;8.80;99.90
3866;DHT22;1948;53.250;10.412;2022-12-22T08:59:19;8.80;99.90
3866;DHT22;1948;53.250;10.412;2022-12-22T09:01:48;8.80;99.90
3866;DHT22;1948;53.250;10.412;2022-12-22T09:04:18;8.80;99.90
3866;DHT22;1948;53.250;10.412;2022-12-22T09:06:47;8.80;99.90
3866;DHT22;1948;53.250;10.412;2022-12-22T09:09:16;8.80;99.90
3866;DHT22;1948;53.250;10.412;2022-12-22T09:11:43;8.80;99.90
3866;DHT22;1948;53.250;10.412;2022-12-22T09:14:11;8.80;99.90
3866;DHT22;1948;53.250;10.412;2022-12-22T09:16:41;8.80;99.90
3866;DHT22;1948;53.250;10.412;2022-12-22T09:19:09;8.80;99.90
3866;DHT22;1948;53.250;10.412;2022-12-22T09:21:38;8.90;99.90
3866;DHT22;1948;53.250;10.412;2022-12-22T09:24:07;9.00;99.90
3866;DHT22;1948;53.250;10.412;2022-12-22T09:26:37;9.10;99.90
3866;DHT22;1948;53.250;10.412;2022-12-22T09:29:05;9.10;99.90
3866;DHT22;1948;53.250;10.412;2022-12-22T09:31:32;9.20;99.90
3866;DHT22;1948;53.250;10.412;2022-12-22T09:34:01;9.20;99.90
3866;DHT22;1948;53.250;10.412;2022-12-22T09:36:29;9.20;99.90
3866;DHT22;1948;53.250;10.412;2022-12-22T09:39:04;9.20;99.90
3866;DHT22;1948;53.250;10.412;2022-12-22T09:41:46;9.30;99.90
3866;DHT22;1948;53.250;10.412;2022-12-22T09:44:23;9.40;99.90
3866;DHT22;1948;53.250;10.412;2022-12-22T09:46:57;9.40;99.90
3866;DHT22;1948;53.250;10.412;2022-12-22T09:49:28;9.40;99.90
3866;DHT22;1948;53.250;10.412;2022-12-22T09:51:58;9.30;99.90
3866;DHT22;1948;53.250;10.412;2022-12-22T09:54:26;9.40;99.90
3866;DHT22;1948;53.250;10.412;2022-12-22T09:56:55;9.40;99.90
3866;DHT22;1948;53.250;10.412;2022-12-22T09:59:25;9.40;99.90
3866;DHT22;1948;53.250;10.412;2022-12-22T10:01:55;9.40;99.90
3866;DHT22;1948;53.250;10.412;2022-12-22T10:07:41;9.60;99.90
3866;DHT22;1948;53.250;10.412;2022-12-22T10:12:54;9.60;99.90
3866;DHT22;1948;53.250;10.412;2022-12-22T10:15:22;9.70;99.90
3866;DHT22;1948;53.250;10.412;2022-12-22T10:18:07;9.70;99.90
3866;DHT22;1948;53.250;10.412;2022-12-22T10:20:35;9.70;99.90
3866;DHT22;1948;53.250;10.412;2022-12-22T10:23:17;9.70;99.90
3866;DHT22;1948;53.250;10.412;2022-12-22T10:28:47;9.70;99.90
3866;DHT22;1948;53.250;10.412;2022-12-22T10:33:51;9.60;99.90
3866;DHT22;1948;53.250;10.412;2022-12-22T10:36:27;9.70;99.90
3866;DHT22;1948;53.250;10.412;2022-12-22T10:39:07;9.70;99.90
3866;DHT22;1948;53.250;10.412;2022-12-22T10:41:44;9.70;99.90
3866;DHT22;1948;53.250;10.412;2022-12-22T10:46:56;9.70;99.90
3866;DHT22;1948;53.250;10.412;2022-12-22T10:49:48;9.80;99.90
3866;DHT22;1948;53.250;10.412;2022-12-22T10:52:28;10.00;99.90
3866;DHT22;1948;53.250;10.412;2022-12-22T10:55:27;10.10;99.90
3866;DHT22;1948;53.250;10.412;2022-12-22T10:58:21;10.30;99.90
3866;DHT22;1948;53.250;10.412;2022-12-22T11:01:03;10.40;99.90
3866;DHT22;1948;53.250;10.412;2022-12-22T11:03:31;10.50;99.90
3866;DHT22;1948;53.250;10.412;2022-12-22T11:05:59;10.60;99.90
3866;DHT22;1948;53.250;10.412;2022-12-22T11:08:31;10.60;99.90
3866;DHT22;1948;53.250;10.412;2022-12-22T11:11:22;10.70;99.90
3866;DHT22;1948;53.250;10.412;2022-12-22T11:17:16;10.80;99.90
3866;DHT22;1948;53.250;10.412;2022-12-22T11:23:12;10.70;99.90
3866;DHT22;1948;53.250;10.412;2022-12-22T11:25:59;10.80;99.90
3866;DHT22;1948;53.250;10.412;2022-12-22T11:29:01;10.80;99.90
3866;DHT22;1948;53.250;10.412;2022-12-22T11:35:01;10.80;99.90
3866;DHT22;1948;53.250;10.412;2022-12-22T11:40:32;10.70;99.90
3866;DHT22;1948;53.250;10.412;2022-12-22T11:48:36;10.60;99.90
3866;DHT22;1948;53.250;10.412;2022-12-22T12:12:51;10.50;99.90
3866;DHT22;1948;53.250;10.412;2022-12-22T12:15:42;10.40;99.90
3866;DHT22;1948;53.250;10.412;2022-12-22T12:24:14;10.40;99.90
3866;DHT22;1948;53.250;10.412;2022-12-22T12:33:33;10.30;99.90
3866;DHT22;1948;53.250;10.412;2022-12-22T12:36:06;10.30;99.90
3866;DHT22;1948;53.250;10.412;2022-12-22T12:39:22;10.40;99.90
3866;DHT22;1948;53.250;10.412;2022-12-22T12:44:52;10.60;99.90
3866;DHT22;1948;53.250;10.412;2022-12-22T12:47:32;11.50;99.90
3866;DHT22;1948;53.250;10.412;2022-12-22T12:55:34;13.60;99.90
3866;DHT22;1948;53.250;10.412;2022-12-22T13:03:54;14.60;99.90
3866;DHT22;1948;53.250;10.412;2022-12-22T13:09:23;16.30;99.90
3866;DHT22;1948;53.250;10.412;2022-12-22T13:12:52;16.00;99.90
3866;DHT22;1948;53.250;10.412;2022-12-22T13:15:36;15.40;99.90
3866;DHT22;1948;53.250;10.412;2022-12-22T13:27:00;16.40;99.90
3866;DHT22;1948;53.250;10.412;2022-12-22T13:29:41;17.20;99.90
3866;DHT22;1948;53.250;10.412;2022-12-22T13:32:23;17.90;99.90
3866;DHT22;1948;53.250;10.412;2022-12-22T13:37:59;18.80;99.90
3866;DHT22;1948;53.250;10.412;2022-12-22T13:40:40;19.20;99.90
3866;DHT22;1948;53.250;10.412;2022-12-22T13:43:19;19.40;99.90
3866;DHT22;1948;53.250;10.412;2022-12-22T13:45:54;19.30;99.90
3866;DHT22;1948;53.250;10.412;2022-12-22T13:48:46;19.30;99.90
3866;DHT22;1948;53.250;10.412;2022-12-22T13:51:25;19.10;99.90
3866;DHT22;1948;53.250;10.412;2022-12-22T13:54:03;18.90;99.90
3866;DHT22;1948;53.250;10.412;2022-12-22T13:59:35;18.60;99.90
3866;DHT22;1948;53.250;10.412;2022-12-22T14:04:38;18.50;99.90
3866;DHT22;1948;53.250;10.412;2022-12-22T14:07:14;18.40;99.90
3866;DHT22;1948;53.250;10.412;2022-12-22T14:09:47;18.00;99.90
3866;DHT22;1948;53.250;10.412;2022-12-22T14:12:21;17.70;99.90
3866;DHT22;1948;53.250;10.412;2022-12-22T14:14:55;16.80;99.90
3866;DHT22;1948;53.250;10.412;2022-12-22T14:17:35;16.00;99.90
3866;DHT22;1948;53.250;10.412;2022-12-22T14:20:36;15.00;99.90
3866;DHT22;1948;53.250;10.412;2022-12-22T14:25:49;13.20;99.90
3866;DHT22;1948;53.250;10.412;2022-12-22T14:28:26;12.70;99.90
3866;DHT22;1948;53.250;10.412;2022-12-22T14:30:57;12.20;99.90
3866;DHT22;1948;53.250;10.412;2022-12-22T14:33:31;11.70;99.90
3866;DHT22;1948;53.250;10.412;2022-12-22T14:38:49;11.10;99.90
3866;DHT22;1948;53.250;10.412;2022-12-22T14:50:02;10.50;99.90
3866;DHT22;1948;53.250;10.412;2022-12-22T14:52:45;10.30;99.90
3866;DHT22;1948;53.250;10.412;2022-12-22T14:55:33;10.00;99.90
3866;DHT22;1948;53.250;10.412;2022-12-22T15:00:41;9.60;99.90
3866;DHT22;1948;53.250;10.412;2022-12-22T15:05:51;9.40;99.90
3866;DHT22;1948;53.250;10.412;2022-12-22T15:08:38;9.20;99.90
3866;DHT22;1948;53.250;10.412;2022-12-22T15:11:14;9.00;99.90
3866;DHT22;1948;53.250;10.412;2022-12-22T15:13:44;8.90;99.90
3866;DHT22;1948;53.250;10.412;2022-12-22T15:16:17;8.80;99.90
3866;DHT22;1948;53.250;10.412;2022-12-22T15:18:45;8.70;99.90
3866;DHT22;1948;53.250;10.412;2022-12-22T15:21:16;8.60;99.90
3866;DHT22;1948;53.250;10.412;2022-12-22T15:23:45;8.60;99.90
3866;DHT22;1948;53.250;10.412;2022-12-22T15:26:12;8.50;99.90
3866;DHT22;1948;53.250;10.412;2022-12-22T15:28:39;8.50;99.90
3866;DHT22;1948;53.250;10.412;2022-12-22T15:31:17;8.50;99.90
3866;DHT22;1948;53.250;10.412;2022-12-22T15:33:44;8.40;99.90
3866;DHT22;1948;53.250;10.412;2022-12-22T15:36:12;8.40;99.90
3866;DHT22;1948;53.250;10.412;2022-12-22T15:38:42;8.40;99.90
3866;DHT22;1948;53.250;10.412;2022-12-22T15:41:11;8.30;99.90
3866;DHT22;1948;53.250;10.412;2022-12-22T15:43:38;8.30;99.90
3866;DHT22;1948;53.250;10.412;2022-12-22T15:46:25;8.20;99.90
3866;DHT22;1948;53.250;10.412;2022-12-22T15:48:52;8.10;99.90
3866;DHT22;1948;53.250;10.412;2022-12-22T15:51:25;8.00;99.90
3866;DHT22;1948;53.250;10.412;2022-12-22T15:53:55;8.00;99.90
3866;DHT22;1948;53.250;10.412;2022-12-22T15:56:24;8.00;99.90
3866;DHT22;1948;53.250;10.412;2022-12-22T15:58:53;7.90;99.90
3866;DHT22;1948;53.250;10.412;2022-12-22T16:01:25;7.90;99.90
3866;DHT22;1948;53.250;10.412;2022-12-22T16:03:54;7.90;99.90
3866;DHT22;1948;53.250;10.412;2022-12-22T16:06:21;7.90;99.90
3866;DHT22;1948;53.250;10.412;2022-12-22T16:08:51;7.80;99.90
3866;DHT22;1948;53.250;10.412;2022-12-22T16:11:22;7.80;99.90
3866;DHT22;1948;53.250;10.412;2022-12-22T16:13:50;7.80;99.90
3866;DHT22;1948;53.250;10.412;2022-12-22T16:16:18;7.80;99.90
3866;DHT22;1948;53.250;10.412;2022-12-22T16:18:46;7.80;99.90
3866;DHT22;1948;53.250;10.412;2022-12-22T16:21:15;7.70;99.90
3866;DHT22;1948;53.250;10.412;2022-12-22T16:23:45;7.70;99.90
3866;DHT22;1948;53.250;10.412;2022-12-22T16:26:19;7.70;99.90
3866;DHT22;1948;53.250;10.412;2022-12-22T16:28:49;7.70;99.90
3866;DHT22;1948;53.250;10.412;2022-12-22T16:31:23;7.60;99.90
3866;DHT22;1948;53.250;10.412;2022-12-22T16:33:51;7.60;99.90
3866;DHT22;1948;53.250;10.412;2022-12-22T16:36:23;7.50;99.90
3866;DHT22;1948;53.250;10.412;2022-12-22T16:38:50;7.50;99.90
3866;DHT22;1948;53.250;10.412;2022-12-22T16:41:23;7.40;99.90
3866;DHT22;1948;53.250;10.412;2022-12-22T16:43:53;7.40;99.90
3866;DHT22;1948;53.250;10.412;2022-12-22T16:46:38;7.40;99.90
3866;DHT22;1948;53.250;10.412;2022-12-22T16:49:07;7.40;99.90
3866;DHT22;1948;53.250;10.412;2022-12-22T16:51:35;7.40;99.90
3866;DHT22;1948;53.250;10.412;2022-12-22T16:54:05;7.40;99.90
3866;DHT22;1948;53.250;10.412;2022-12-22T16:56:35;7.40;99.90
3866;DHT22;1948;53.250;10.412;2022-12-22T16:59:06;7.40;99.90
3866;DHT22;1948;53.250;10.412;2022-12-22T17:01:59;7.30;99.90
3866;DHT22;1948;53.250;10.412;2022-12-22T17:04:31;7.30;99.90
3866;DHT22;1948;53.250;10.412;2022-12-22T17:07:00;7.30;99.90
3866;DHT22;1948;53.250;10.412;2022-12-22T17:09:49;7.40;99.90
3866;DHT22;1948;53.250;10.412;2022-12-22T17:12:22;7.40;99.90
3866;DHT22;1948;53.250;10.412;2022-12-22T17:14:54;7.50;99.90
3866;DHT22;1948;53.250;10.412;2022-12-22T17:17:22;7.50;99.90
3866;DHT22;1948;53.250;10.412;2022-12-22T17:20:02;7.50;99.90
3866;DHT22;1948;53.250;10.412;2022-12-22T17:22:31;7.50;99.90
3866;DHT22;1948;53.250;10.412;2022-12-22T17:25:02;7.60;99.90
3866;DHT22;1948;53.250;10.412;2022-12-22T17:27:31;7.60;99.90
3866;DHT22;1948;53.250;10.412;2022-12-22T17:30:00;7.70;99.90
3866;DHT22;1948;53.250;10.412;2022-12-22T17:32:41;7.70;99.90
3866;DHT22;1948;53.250;10.412;2022-12-22T17:35:15;7.70;99.90
3866;DHT22;1948;53.250;10.412;2022-12-22T17:37:44;7.70;99.90
3866;DHT22;1948;53.250;10.412;2022-12-22T17:40:28;7.70;99.90
3866;DHT22;1948;53.250;10.412;2022-12-22T17:42:57;7.70;99.90
3866;DHT22;1948;53.250;10.412;2022-12-22T17:45:24;7.70;99.90
3866;DHT22;1948;53.250;10.412;2022-12-22T17:47:51;7.70;99.90
3866;DHT22;1948;53.250;10.412;2022-12-22T17:50:20;7.70;99.90
3866;DHT22;1948;53.250;10.412;2022-12-22T17:52:51;7.70;99.90
3866;DHT22;1948;53.250;10.412;2022-12-22T17:55:25;7.80;99.90
3866;DHT22;1948;53.250;10.412;2022-12-22T17:58:16;7.80;99.90
3866;DHT22;1948;53.250;10.412;2022-12-22T18:00:45;7.70;99.90
3866;DHT22;1948;53.250;10.412;2022-12-22T18:03:13;7.80;99.90
3866;DHT22;1948;53.250;10.412;2022-12-22T18:05:44;7.70;99.90
3866;DHT22;1948;53.250;10.412;2022-12-22T18:08:16;7.70;99.90
3866;DHT22;1948;53.250;10.412;2022-12-22T18:10:45;7.70;99.90
3866;DHT22;1948;53.250;10.412;2022-12-22T18:13:16;7.80;99.90
3866;DHT22;1948;53.250;10.412;2022-12-22T18:15:45;7.80;99.90
3866;DHT22;1948;53.250;10.412;2022-12-22T18:18:16;7.80;99.90
3866;DHT22;1948;53.250;10.412;2022-12-22T18:20:44;7.70;99.90
3866;DHT22;1948;53.250;10.412;2022-12-22T18:23:33;7.70;99.90
3866;DHT22;1948;53.250;10.412;2022-12-22T18:26:02;7.70;99.90
3866;DHT22;1948;53.250;10.412;2022-12-22T18:28:34;7.60;99.90
3866;DHT22;1948;53.250;10.412;2022-12-22T18:31:03;7.70;99.90
3866;DHT22;1948;53.250;10.412;2022-12-22T18:33:33;7.60;99.90
3866;DHT22;1948;53.250;10.412;2022-12-22T18:35:59;7.60;99.90
3866;DHT22;1948;53.250;10.412;2022-12-22T18:38:32;7.60;99.90
3866;DHT22;1948;53.250;10.412;2022-12-22T18:41:04;7.60;99.90
3866;DHT22;1948;53.250;10.412;2022-12-22T18:43:31;7.60;99.90
3866;DHT22;1948;53.250;10.412;2022-12-22T18:45:58;7.60;99.90
3866;DHT22;1948;53.250;10.412;2022-12-22T18:48:25;7.70;99.90
3866;DHT22;1948;53.250;10.412;2022-12-22T18:50:52;7.70;99.90
3866;DHT22;1948;53.250;10.412;2022-12-22T18:53:28;7.70;99.90
3866;DHT22;1948;53.250;10.412;2022-12-22T18:55:57;7.70;99.90
3866;DHT22;1948;53.250;10.412;2022-12-22T18:58:24;7.60;99.90
3866;DHT22;1948;53.250;10.412;2022-12-22T19:00:54;7.60;99.90
3866;DHT22;1948;53.250;10.412;2022-12-22T19:03:24;7.60;99.90
3866;DHT22;1948;53.250;10.412;2022-12-22T19:05:56;7.50;99.90
3866;DHT22;1948;53.250;10.412;2022-12-22T19:08:26;7.50;99.90
3866;DHT22;1948;53.250;10.412;2022-12-22T19:11:01;7.50;99.90
3866;DHT22;1948;53.250;10.412;2022-12-22T19:13:43;7.40;99.90
3866;DHT22;1948;53.250;10.412;2022-12-22T19:16:18;7.50;99.90